Map

Track Data

SID SEASON NUMBER BASIN SUBBASIN NAME ISO_TIME NATURE LAT LON WMO_WIND WMO_PRES WMO_AGENCY TRACK_TYPE DIST2LAND LANDFALL IFLAG USA_AGENCY USA_ATCF_ID USA_LAT USA_LON USA_RECORD USA_STATUS USA_WIND USA_PRES USA_SSHS USA_R34_NE USA_R34_SE USA_R34_SW USA_R34_NW USA_R50_NE USA_R50_SE USA_R50_SW USA_R50_NW USA_R64_NE USA_R64_SE USA_R64_SW USA_R64_NW USA_POCI USA_ROCI USA_RMW USA_EYE TOKYO_LAT TOKYO_LON TOKYO_GRADE TOKYO_WIND TOKYO_PRES TOKYO_R50_DIR TOKYO_R50_LONG TOKYO_R50_SHORT TOKYO_R30_DIR TOKYO_R30_LONG TOKYO_R30_SHORT TOKYO_LAND CMA_LAT CMA_LON CMA_CAT CMA_WIND CMA_PRES HKO_LAT HKO_LON HKO_CAT HKO_WIND HKO_PRES NEWDELHI_LAT NEWDELHI_LON NEWDELHI_GRADE NEWDELHI_WIND NEWDELHI_PRES NEWDELHI_CI NEWDELHI_DP NEWDELHI_POCI REUNION_LAT REUNION_LON REUNION_TYPE REUNION_WIND REUNION_PRES REUNION_TNUM REUNION_CI REUNION_RMW REUNION_R34_NE REUNION_R34_SE REUNION_R34_SW REUNION_R34_NW REUNION_R50_NE REUNION_R50_SE REUNION_R50_SW REUNION_R50_NW REUNION_R64_NE REUNION_R64_SE REUNION_R64_SW REUNION_R64_NW BOM_LAT BOM_LON BOM_TYPE BOM_WIND BOM_PRES BOM_TNUM BOM_CI BOM_RMW BOM_R34_NE BOM_R34_SE BOM_R34_SW BOM_R34_NW BOM_R50_NE BOM_R50_SE BOM_R50_SW BOM_R50_NW BOM_R64_NE BOM_R64_SE BOM_R64_SW BOM_R64_NW BOM_ROCI BOM_POCI BOM_EYE BOM_POS_METHOD BOM_PRES_METHOD NADI_LAT NADI_LON NADI_CAT NADI_WIND NADI_PRES WELLINGTON_LAT WELLINGTON_LON WELLINGTON_WIND WELLINGTON_PRES DS824_LAT DS824_LON DS824_STAGE DS824_WIND DS824_PRES TD9636_LAT TD9636_LON TD9636_STAGE TD9636_WIND TD9636_PRES TD9635_LAT TD9635_LON TD9635_WIND TD9635_PRES TD9635_ROCI NEUMANN_LAT NEUMANN_LON NEUMANN_CLASS NEUMANN_WIND NEUMANN_PRES MLC_LAT MLC_LON MLC_CLASS MLC_WIND MLC_PRES USA_GUST BOM_GUST BOM_GUST_PER REUNION_GUST REUNION_GUST_PER USA_SEAHGT USA_SEARAD_NE USA_SEARAD_SE USA_SEARAD_SW USA_SEARAD_NW STORM_SPEED STORM_DIR
1992292S09083 1993 114 SI MM BABIE 1992-10-17 12:00:00 TS -8.90000 83.0000 main 1679 1677 O___________O_ jtwc_sh SH021993 -8.90000 83.0000 20 -1 -8.90000 83.0000 TC 20 4 236
1992292S09083 1993 114 SI MM BABIE 1992-10-17 15:00:00 TS -9.00251 82.8525 main 1688 1687 P___________P_ SH021993 -9.00251 82.8525 20 -1 -9.00251 82.8525 TC 20 4 236
1992292S09083 1993 114 SI MM BABIE 1992-10-17 18:00:00 TS -9.10000 82.7000 main 1696 1695 O___________O_ jtwc_sh SH021993 -9.10000 82.7000 20 -1 -9.10000 82.7000 TC 20 4 238
1992292S09083 1993 114 SI MM BABIE 1992-10-17 21:00:00 TS -9.19250 82.5425 main 1705 1702 P___________P_ SH021993 -9.19250 82.5425 22 -1 -9.19250 82.5425 TC 22 5 251
1992292S09083 1993 114 SI MM BABIE 1992-10-18 00:00:00 TS -9.25556 82.2444 23 1002 reunion main 1712 1711 O____O______O_ jtwc_sh SH021993 -9.30000 82.4000 25 -1 -8.90000 81.0000 2 23 1002 2.00000 2.00000 -9.30000 82.4000 TC 25 5 249
1992292S09083 1993 114 SI MM BABIE 1992-10-18 03:00:00 TS -9.37399 82.0565 main 1722 1721 P____P______P_ SH021993 -9.44249 82.2925 25 -1 -9.10001 81.1125 2 23 1002 -9.44249 82.2925 TC 25 4 230
1992292S09083 1993 114 SI MM BABIE 1992-10-18 06:00:00 TS -9.51818 81.9273 23 1002 reunion main 1731 1731 O____O______O_ jtwc_sh SH021993 -9.60000 82.2000 25 -1 -9.30000 81.2000 2 23 1002 2.00000 2.00000 -9.60000 82.2000 TC 25 4 219
1992292S09083 1993 114 SI MM BABIE 1992-10-18 09:00:00 TS -9.66666 81.8167 main 1753 1753 P____P______P_ SH021993 -9.75000 82.1000 27 -1 -9.49999 81.2500 2 23 1001 -9.75000 82.1000 TC 27 4 206
1992292S09083 1993 114 SI MM BABIE 1992-10-18 12:00:00 TS -9.83333 81.7667 24 1000 reunion main 1764 1764 O____O______O_ jtwc_sh SH021993 -9.90000 82.0000 30 -1 -9.70000 81.3000 2 24 1000 2.00000 2.00000 -9.90000 82.0000 TC 30 3 195
1992292S09083 1993 114 SI MM BABIE 1992-10-18 15:00:00 TS -10.0025 81.7308 main 1785 1785 P____P______P_ SH021993 -10.0500 81.8925 30 -1 -9.90751 81.4075 2 26 998 -10.0500 81.8925 TC 30 3 192
1992292S09083 1993 114 SI MM BABIE 1992-10-18 18:00:00 TS -10.1667 81.7000 28 997 reunion main 1808 1808 O____O______O_ jtwc_sh SH021993 -10.2000 81.8000 30 -1 -10.1000 81.5000 2 28 997 2.50000 2.50000 -10.2000 81.8000 TC 30 3 190
1992292S09083 1993 114 SI MM BABIE 1992-10-18 21:00:00 TS -10.3167 81.6717 main 1819 1819 P____P______P_ SH021993 -10.3500 81.7425 32 -1 -10.2500 81.5300 2 28 997 -10.3500 81.7425 TC 32 3 192
1992292S09083 1993 114 SI MM BABIE 1992-10-19 00:00:00 TS -10.4667 81.6333 28 997 reunion main 1840 1840 O____O______O_ jtwc_sh SH021993 -10.5000 81.7000 35 0 -10.4000 81.5000 2 28 997 2.50000 2.50000 -10.5000 81.7000 TC 35 3 197
1992292S09083 1993 114 SI MM BABIE 1992-10-19 03:00:00 TS -10.6333 81.5692 main 1852 1852 P____P______P_ SH021993 -10.6500 81.6500 35 0 -10.6000 81.4075 2 30 995 -10.6500 81.6500 TC 35 4 202
1992292S09083 1993 114 SI MM BABIE 1992-10-19 06:00:00 TS -10.8000 81.5000 33 993 reunion main 1873 1873 O____O______O_ jtwc_sh SH021993 -10.8000 81.6000 35 0 -10.8000 81.3000 3 33 993 3.00000 3.00000 -10.8000 81.6000 TC 35 3 201
1992292S09083 1993 114 SI MM BABIE 1992-10-19 09:00:00 TS -10.9450 81.4475 main 1884 1884 P____P______P_ SH021993 -10.9500 81.5500 37 0 -10.9350 81.2425 3 35 992 -10.9500 81.5500 TC 37 3 197
1992292S09083 1993 114 SI MM BABIE 1992-10-19 12:00:00 TS -11.1000 81.4000 37 991 reunion main 1906 1906 O____O______O_ jtwc_sh SH021993 -11.1000 81.5000 40 0 -11.1000 81.2000 3 37 991 3.00000 3.00000 -11.1000 81.5000 TC 40 4 196
1992292S09083 1993 114 SI MM BABIE 1992-10-19 15:00:00 TS -11.3000 81.3500 main 1929 1928 P____P______P_ SH021993 -11.2500 81.4500 40 0 -11.4000 81.1500 3 37 991 -11.2500 81.4500 TC 40 4 193
1992292S09083 1993 114 SI MM BABIE 1992-10-19 18:00:00 TS -11.5000 81.3000 37 991 reunion main 1951 1951 O____O______O_ jtwc_sh SH021993 -11.4000 81.4000 40 0 -11.7000 81.1000 3 37 991 3.00000 3.00000 -11.4000 81.4000 TC 40 4 196
1992292S09083 1993 114 SI MM BABIE 1992-10-19 21:00:00 TS -11.6550 81.2500 main 1973 1973 P____P______P_ SH021993 -11.5500 81.3500 42 0 -11.8650 81.0500 3 37 991 -11.5500 81.3500 TC 42 3 197
1992292S09083 1993 114 SI MM BABIE 1992-10-20 00:00:00 TS -11.8000 81.2000 37 991 reunion main 1984 1984 O____O______O_ jtwc_sh SH021993 -11.7000 81.3000 45 0 -12.0000 81.0000 3 37 991 3.00000 3.00000 -11.7000 81.3000 TC 45 3 198
1992292S09083 1993 114 SI MM BABIE 1992-10-20 03:00:00 TS -11.9592 81.1550 main 2006 2006 P____P______P_ SH021993 -11.8500 81.2575 45 0 -12.1775 80.9500 3 37 991 -11.8500 81.2575 TC 45 3 196
1992292S09083 1993 114 SI MM BABIE 1992-10-20 06:00:00 TS -12.1333 81.1000 37 991 reunion main 2017 2017 O____O______O_ jtwc_sh SH021993 -12.0000 81.2000 45 0 -12.4000 80.9000 3 37 991 3.00000 3.00000 -12.0000 81.2000 TC 45 4 198
1992292S09083 1993 114 SI MM BABIE 1992-10-20 09:00:00 TS -12.3383 81.0366 main 2039 2039 P____P______P_ SH021993 -12.1500 81.1150 45 0 -12.7150 80.8800 3 35 992 -12.1500 81.1150 TC 45 4 202
1992292S09083 1993 114 SI MM BABIE 1992-10-20 12:00:00 TS -12.5333 80.9333 33 993 reunion main 2061 2061 O____O______O_ jtwc_sh SH021993 -12.3000 81.0000 45 0 -13.0000 80.8000 3 33 993 2.50000 3.00000 -12.3000 81.0000 TC 45 4 217
1992292S09083 1993 114 SI MM BABIE 1992-10-20 15:00:00 TS -12.6817 80.7675 main 2084 2083 P____P______P_ SH021993 -12.4500 80.8650 42 0 -13.1451 80.5725 3 33 993 -12.4500 80.8650 TC 42 4 233
1992292S09083 1993 114 SI MM BABIE 1992-10-20 18:00:00 TS -12.8000 80.5667 33 993 reunion main 2095 2095 O____O______O_ jtwc_sh SH021993 -12.6000 80.7000 40 0 -13.2000 80.3000 3 33 993 2.50000 3.00000 -12.6000 80.7000 TC 40 4 239
1992292S09083 1993 114 SI MM BABIE 1992-10-20 21:00:00 TS -12.9100 80.3717 main 2106 2106 P____P______P_ SH021993 -12.7575 80.5150 40 0 -13.2150 80.0850 3 30 995 -12.7575 80.5150 TC 40 4 243
1992292S09083 1993 114 SI MM BABIE 1992-10-21 00:00:00 TS -13.0000 80.1667 28 997 reunion main 2118 2118 O____O______O_ jtwc_sh SH021993 -12.9000 80.3000 40 0 -13.2000 79.9000 2 28 997 2.50000 2.50000 -12.9000 80.3000 TC 40 4 249
1992292S09083 1993 114 SI MM BABIE 1992-10-21 03:00:00 TS -13.0717 79.9500 main 2130 2130 P____P______P_ SH021993 -13.0075 80.0575 37 0 -13.2000 79.7350 2 28 997 -13.0075 80.0575 TC 37 4 252
1992292S09083 1993 114 SI MM BABIE 1992-10-21 06:00:00 TS -13.1333 79.7333 28 997 reunion main 2131 2131 O____O______O_ jtwc_sh SH021993 -13.1000 79.8000 35 0 -13.2000 79.6000 2 28 997 2.00000 2.50000 -13.1000 79.8000 TC 35 4 253
1992292S09083 1993 114 SI MM BABIE 1992-10-21 09:00:00 TS -13.1984 79.5292 main 2143 2143 P____P______P_ SH021993 -13.1975 79.5475 32 -1 -13.2000 79.4925 2 25 998 -13.1975 79.5475 TC 32 4 251
1992292S09083 1993 114 SI MM BABIE 1992-10-21 12:00:00 TS -13.2667 79.3333 23 1000 reunion main 2155 O____O______O_ jtwc_sh SH021993 -13.3000 79.3000 30 -1 -13.2000 79.4000 6 23 1000 2.00000 2.00000 -13.3000 79.3000 TC 30 4 250

About IBTrACS Database

This database is a web-friendly format of International Best Track Archive for Climate Stewardship (IBTrACS), a global best track data archive curated by NOAA dating back to 1842.

Updated: 2021-10-21